Keg River, Canada
Current Conditions -  °F | °C
As of 9:10 AM on Thursday 30 Oct 2014 (Local Time) from CYOJ Reporting Station
Freezing Drizzle Freezing Drizzle  
Wind Chill: 25°   Ceiling: 800
Heat Index: 32°   Visibility: 8mi
Dew Point: 30°   Wind: 8mph
Humidity: 93%   Direction: 130°SE
Pressure: 30.07"   Gusts: NA
Location:  57.8°N, 117.87°W
Report Text: CYOJ 301510Z 13007KT 8SM -FZDZ OVC008 M00/M01 A3007 RMK ST8 SLP205
Loading
Personal Weather Stations






























Interactive Weather Map
Tropical Storm Tracking
New forecast layout! Learn more

10-Day Weather Forecast

Advertisements
Track Severe Weather on mobile